Latest Weather Observations for St Lawrence

IDQ60801

Issued at 1:35 pm EST Saturday 29 November 2014 (issued every 30 minutes, with the page automatically refreshed every 10 minutes)

About weather observations | Map of weather stations | Latest weather observations for QLD | Other Formats
Station Details ID: 033210 Name: ST LAWRENCE Lat: -22.35 Lon: 149.52 Height: 9.19 m
Data from the previous 72 hours. | See also: Recent months at St Lawrence
Date/Time
EST
Temp
°C
App
Temp
°C
Dew
Point
Rel
Hum
%
Delta-T
°C
Wind Press
QNH
hPa
Press
MSL
hPa
Rain
since 9 am
mm
Dir
 
Spd
km/h
Gust
km/h
Spd
kts
Gust
kts
29/01:30pm 28.0 24.4 17.2 52 6.8 E 32 44 17 24 1013.0 1012.9 0.0
29/01:28pm 28.8 25.8 17.7 51 7.0 NE 30 48 16 26 1012.8 1012.7 0.0
29/01:00pm 30.8 30.0 18.5 47 7.9 NNE 20 33 11 18 1012.7 1012.6 0.0
29/12:30pm 29.4 28.1 16.9 47 7.8 NNE 19 32 10 17 1013.0 1012.9 0.0
29/12:00pm 30.0 27.3 15.7 42 8.8 NNE 24 30 13 16 1013.1 1013.0 0.0
29/11:30am 30.6 28.8 17.0 44 8.6 NE 22 32 12 17 1013.4 1013.3 0.0
29/11:00am 30.2 29.1 17.3 46 8.2 ENE 19 28 10 15 1013.8 1013.7 0.0
29/10:30am 29.5 29.3 16.7 46 8.0 E 13 22 7 12 1014.2 1014.1 0.0
29/10:00am 29.3 29.1 16.8 47 7.8 E 13 24 7 13 1014.4 1014.3 0.0
29/09:30am 29.7 29.5 18.5 51 7.2 E 17 24 9 13 1014.6 1014.5 0.0
29/09:00am 28.3 28.4 17.5 52 6.8 E 13 19 7 10 1014.8 1014.7 0.0
29/08:30am 28.0 27.2 17.2 52 6.8 ESE 17 30 9 16 1014.9 1014.8 0.0
29/08:00am 27.4 28.0 18.7 59 5.6 E 13 22 7 12 1014.8 1014.7 0.0
29/07:30am 26.1 26.9 18.2 61 5.0 ESE 11 19 6 10 1014.7 1014.6 0.0
29/07:00am 24.4 25.5 18.1 68 4.0 S 9 13 5 7 1014.6 1014.5 0.0
29/06:30am 23.0 24.2 18.3 75 2.9 S 9 15 5 8 1014.5 1014.4 0.0
29/06:00am 21.2 22.2 17.8 81 2.1 S 9 13 5 7 1014.2 1014.1 0.0
29/05:30am 20.7 21.8 17.9 84 1.7 S 9 13 5 7 1013.9 1013.8 0.0
29/05:00am 20.3 20.8 17.5 84 1.7 S 11 15 6 8 1013.8 1013.7 0.0
29/04:30am 20.5 21.1 17.7 84 1.7 S 11 15 6 8 1013.5 1013.4 0.0
29/04:00am 20.7 21.3 17.7 83 1.8 S 11 15 6 8 1013.4 1013.3 0.0
29/03:30am 20.7 21.6 17.5 82 2.0 S 9 13 5 7 1013.2 1013.1 0.0
29/03:00am 20.9 21.4 17.5 81 2.1 S 11 15 6 8 1013.3 1013.2 0.0
29/02:30am 21.0 22.0 17.8 82 2.0 S 9 13 5 7 1013.4 1013.3 0.0
29/02:00am 21.3 22.4 17.9 81 2.1 S 9 11 5 6 1013.5 1013.4 0.0
29/01:30am 21.3 22.2 17.5 79 2.3 S 9 11 5 6 1013.9 1013.8 0.0
29/01:00am 21.7 22.5 17.3 76 2.7 S 9 11 5 6 1013.9 1013.8 0.0
29/12:30am 22.3 23.7 17.7 75 2.9 S 7 11 4 6 1014.3 1014.2 0.0
29/12:00am 22.9 24.4 18.0 74 3.1 SSE 7 9 4 5 1014.7 1014.6 0.0
 
Date/Time
EST
Temp
°C
App
Temp
°C
Dew
Point
Rel
Hum
%
Delta-T
°C
Wind Press
QNH
hPa
Press
MSL
hPa
Rain
since 9 am
mm
Dir
 
Spd
km/h
Gust
km/h
Spd
kts
Gust
kts
28/11:30pm 23.4 24.9 18.1 72 3.3 ESE 7 11 4 6 1014.9 1014.8 0.0
28/11:00pm 23.9 25.4 18.1 70 3.6 SE 7 9 4 5 1015.3 1015.2 0.0
28/10:30pm 24.5 25.7 18.2 68 4.0 ESE 9 13 5 7 1015.2 1015.1 0.0
28/10:00pm 24.8 25.3 18.3 67 4.1 E 13 22 7 12 1015.2 1015.1 0.0
28/09:30pm 25.0 25.5 18.4 66 4.2 E 13 20 7 11 1015.1 1015.0 0.0
28/09:00pm 25.2 25.3 18.4 66 4.3 E 15 24 8 13 1014.7 1014.6 0.0
28/08:30pm 25.5 25.3 18.4 65 4.5 E 17 32 9 17 1014.4 1014.3 0.0
28/08:00pm 25.8 24.9 18.2 63 4.8 E 20 30 11 16 1014.0 1013.9 0.0
28/07:30pm 26.6 25.5 17.4 57 5.8 E 19 32 10 17 1013.7 1013.6 0.0
28/07:00pm 27.1 25.5 16.1 51 6.8 ENE 19 32 10 17 1013.2 1013.1 0.0
28/06:30pm 27.4 26.3 16.4 51 6.8 ENE 17 26 9 14 1012.9 1012.8 0.0
28/06:00pm 28.3 26.6 16.2 47 7.5 ENE 20 35 11 19 1012.8 1012.7 0.0
28/05:30pm 28.8 26.6 16.0 45 7.9 NE 22 32 12 17 1012.6 1012.5 0.0
28/05:00pm 29.2 27.3 16.7 46 7.8 NE 22 32 12 17 1012.3 1012.2 0.0
28/04:30pm 29.8 27.5 16.6 45 8.3 NE 24 33 13 18 1012.0 1011.9 0.0
28/04:00pm 30.5 27.9 16.9 44 8.6 NNE 26 33 14 18 1011.7 1011.6 0.0
28/03:30pm 29.8 28.3 18.6 51 7.2 NNE 24 33 13 18 1011.8 1011.7 0.0
28/03:00pm 30.2 28.7 18.6 49 7.5 NNE 24 32 13 17 1011.9 1011.8 0.0
28/02:30pm 30.6 29.0 18.3 47 7.9 NNE 24 33 13 18 1012.2 1012.1 0.0
28/02:00pm 30.7 29.1 18.4 47 7.9 NNE 24 32 13 17 1012.3 1012.2 0.0
28/01:30pm 32.1 31.1 17.9 42 9.1 NE 20 30 11 16 1012.7 1012.6 0.0
28/01:00pm 30.6 28.4 17.0 44 8.6 NNE 24 33 13 18 1012.8 1012.7 0.0
28/12:30pm 31.7 29.3 16.4 39 9.6 NNE 24 35 13 19 1013.1 1013.0 0.0
28/12:00pm 31.8 30.6 16.1 38 9.8 ENE 17 26 9 14 1013.6 1013.5 0.0
28/11:30am 30.9 29.9 15.7 39 9.4 NE 15 22 8 12 1014.0 1013.9 0.0
28/11:00am 30.2 30.3 16.6 44 8.5 E 11 22 6 12 1014.3 1014.2 0.0
28/10:30am 29.9 28.9 16.7 45 8.3 ENE 17 22 9 12 1014.6 1014.5 0.0
28/10:00am 30.1 29.6 17.9 48 7.8 ENE 17 30 9 16 1014.6 1014.5 0.0
28/09:30am 29.5 29.3 17.7 49 7.5 E 15 24 8 13 1014.9 1014.8 0.0
28/09:00am 27.7 29.0 18.4 57 5.9 ENE 9 17 5 9 1015.1 1015.0 0.0
28/08:30am 27.4 28.2 18.1 57 5.9 E 11 19 6 10 1015.3 1015.2 0.0
28/08:00am 27.1 28.6 19.7 64 4.8 ESE 11 20 6 11 1015.1 1015.0 0.0
28/07:30am 25.8 27.1 19.2 67 4.2 SSE 11 19 6 10 1015.2 1015.1 0.0
28/07:00am 25.0 26.8 19.6 72 3.5 SSE 9 13 5 7 1015.0 1014.9 0.0
28/06:30am 23.6 25.5 19.7 79 2.5 S 9 15 5 8 1014.7 1014.6 0.0
28/06:00am 22.0 23.9 19.7 87 1.5 S 9 13 5 7 1014.3 1014.2 0.0
28/05:30am 21.1 22.4 19.2 89 1.2 S 11 15 6 8 1014.0 1013.9 0.0
28/05:00am 21.4 23.1 19.3 88 1.3 S 9 13 5 7 1013.7 1013.6 0.0
28/04:30am 21.6 23.3 19.3 87 1.5 SSE 9 13 5 7 1013.5 1013.4 0.0
28/04:00am 21.8 23.5 19.4 86 1.5 SSE 9 11 5 6 1013.3 1013.2 0.0
28/03:30am 22.0 23.9 19.7 87 1.5 SSE 9 11 5 6 1012.9 1012.8 0.0
28/03:00am 22.0 23.9 19.7 87 1.5 SSE 9 11 5 6 1012.6 1012.5 0.0
28/02:30am 22.2 24.4 19.6 85 1.7 S 7 9 4 5 1012.8 1012.7 0.0
28/02:00am 22.6 24.9 19.4 82 2.0 SSE 6 7 3 4 1012.8 1012.7 0.0
28/01:30am 23.0 25.4 19.6 81 2.2 SE 6 7 3 4 1013.0 1012.9 0.0
28/01:00am 23.4 25.7 19.5 79 2.5 E 6 7 3 4 1013.2 1013.1 0.0
28/12:30am 23.6 25.8 19.7 79 2.5 ESE 7 9 4 5 1013.3 1013.2 0.0
28/12:00am 23.7 26.2 19.8 79 2.5 E 6 9 3 5 1013.3 1013.2 0.0
 
Date/Time
EST
Temp
°C
App
Temp
°C
Dew
Point
Rel
Hum
%
Delta-T
°C
Wind Press
QNH
hPa
Press
MSL
hPa
Rain
since 9 am
mm
Dir
 
Spd
km/h
Gust
km/h
Spd
kts
Gust
kts
27/11:30pm 23.6 26.2 19.3 77 2.7 E 4 7 2 4 1013.5 1013.4 0.0
27/11:00pm 24.8 27.0 20.3 76 2.9 NE 9 11 5 6 1013.5 1013.4 0.0
27/10:30pm 25.1 27.1 19.9 73 3.4 NE 9 13 5 7 1013.8 1013.7 0.0
27/10:00pm 25.4 27.0 20.0 72 3.5 ENE 11 15 6 8 1013.9 1013.8 0.0
27/09:30pm 25.2 27.7 20.2 74 3.3 NE 7 9 4 5 1013.9 1013.8 0.0
27/09:00pm 25.4 27.1 20.2 73 3.4 NE 11 15 6 8 1013.6 1013.5 0.0
27/08:30pm 25.5 28.2 20.7 75 3.1 NNE 7 11 4 6 1013.5 1013.4 0.0
27/08:00pm 26.0 27.4 20.3 71 3.7 NNE 13 17 7 9 1013.2 1013.1 0.0
27/07:30pm 26.3 27.0 20.4 70 3.9 NNE 17 20 9 11 1013.1 1013.0 0.0
27/07:00pm 26.4 27.1 20.5 70 3.9 NNE 17 24 9 13 1013.0 1012.9 0.0
27/06:30pm 26.8 27.2 20.6 69 4.1 NNE 19 24 10 13 1012.7 1012.6 0.0
27/06:00pm 27.4 27.7 20.7 67 4.4 NNE 20 28 11 15 1012.5 1012.4 0.0
27/05:30pm 27.9 27.7 19.7 61 5.3 NNE 20 28 11 15 1012.2 1012.1 0.0
27/05:00pm 28.2 27.2 18.9 57 6.0 NNE 22 28 12 15 1011.8 1011.7 0.0
27/04:30pm 28.8 28.4 18.9 55 6.4 NE 19 28 10 15 1011.5 1011.4 0.0
27/04:00pm 29.4 28.5 18.2 51 7.2 NE 20 26 11 14 1011.4 1011.3 0.0
27/03:30pm 29.7 29.1 18.8 52 7.0 NE 20 28 11 15 1011.3 1011.2 0.0
27/03:00pm 29.9 29.4 19.0 52 7.1 NE 20 28 11 15 1011.5 1011.4 0.0
27/02:30pm 30.3 29.9 19.3 51 7.2 NE 20 28 11 15 1011.5 1011.4 0.0
27/02:00pm 30.4 29.8 18.8 50 7.5 NE 20 26 11 14 1011.8 1011.7 0.0
27/01:30pm 30.7 30.4 19.1 50 7.6 NE 19 26 10 14 1012.0 1011.9 0.0
27/01:00pm 30.5 30.2 19.2 51 7.4 NNE 19 32 10 17 1012.2 1012.1 0.0
27/12:30pm 29.8 29.4 18.9 52 7.1 NNE 19 26 10 14 1012.7 1012.6 0.0
27/12:00pm 29.9 29.2 18.3 49 7.4 NE 19 24 10 13 1013.2 1013.1 0.0
27/11:30am 29.8 28.8 17.6 48 7.8 NNE 19 26 10 14 1013.6 1013.5 0.0
27/11:00am 29.9 30.1 19.3 53 6.9 NNE 17 26 9 14 1014.1 1014.0 0.0
27/10:30am 29.5 29.8 19.5 55 6.5 NNE 17 22 9 12 1014.3 1014.2 0.0
27/10:00am 28.0 28.4 19.0 58 5.8 NNE 15 22 8 12 1014.8 1014.7 0.0
27/09:30am 28.1 28.8 18.8 57 6.0 NE 13 20 7 11 1014.9 1014.8 0.0
27/09:00am 28.6 29.6 19.5 58 5.9 ENE 13 17 7 9 1014.9 1014.8 0.0
27/08:30am 28.1 29.8 20.1 62 5.2 E 11 19 6 10 1015.0 1014.9 0.0
27/08:00am 26.9 29.1 20.3 67 4.3 E 9 15 5 8 1015.0 1014.9 0.0
27/07:30am 26.3 27.8 19.7 67 4.3 SSE 11 15 6 8 1015.1 1015.0 0.0
27/07:00am 24.5 26.5 20.0 76 2.9 S 9 15 5 8 1015.2 1015.1 0.0
27/06:30am 22.7 24.4 19.3 81 2.2 S 9 15 5 8 1014.8 1014.7 0.0
27/06:00am 21.2 23.4 19.1 88 1.3 SSW 6 9 3 5 1014.4 1014.3 0.0
27/05:30am 20.6 22.5 18.5 88 1.3 S 6 9 3 5 1014.1 1014.0 0.0
27/05:00am 20.8 22.7 18.6 87 1.4 WSW 6 9 3 5 1013.8 1013.7 0.0
27/04:30am 21.5 23.0 18.9 85 1.6 SE 9 11 5 6 1013.6 1013.5 0.0
27/04:00am 21.4 22.9 18.8 85 1.6 SSE 9 11 5 6 1013.4 1013.3 0.0
27/03:30am 21.6 23.1 19.0 85 1.6 SSE 9 13 5 7 1013.6 1013.5 0.0
27/03:00am 21.7 22.9 19.1 85 1.6 S 11 13 6 7 1013.9 1013.8 0.0
27/02:30am 21.8 23.4 19.2 85 1.6 S 9 11 5 6 1013.8 1013.7 0.0
27/02:00am 22.0 23.6 19.2 84 1.8 SSE 9 13 5 7 1013.7 1013.6 0.0
27/01:30am 22.2 23.8 19.2 83 1.9 S 9 11 5 6 1014.0 1013.9 0.0
27/01:00am 22.6 24.3 19.4 82 2.0 S 9 11 5 6 1014.1 1014.0 0.0
27/12:30am 23.1 25.3 19.7 81 2.2 S 7 9 4 5 1014.2 1014.1 0.0
27/12:00am 23.9 26.4 19.8 78 2.6 SE 6 9 3 5 1014.4 1014.3 0.0
 
Date/Time
EST
Temp
°C
App
Temp
°C
Dew
Point
Rel
Hum
%
Delta-T
°C
Wind Press
QNH
hPa
Press
MSL
hPa
Rain
since 9 am
mm
Dir
 
Spd
km/h
Gust
km/h
Spd
kts
Gust
kts
26/11:30pm 24.3 26.5 19.6 75 3.0 ESE 7 9 4 5 1014.6 1014.5 0.0
26/11:00pm 24.6 26.8 19.2 72 3.5 E 6 9 3 5 1014.8 1014.7 0.0
26/10:30pm 25.1 27.3 19.7 72 3.5 E 7 13 4 7 1014.9 1014.8 0.0
26/10:00pm 25.4 27.1 20.2 73 3.4 ENE 11 17 6 9 1014.6 1014.5 0.0
26/09:30pm 25.6 27.4 20.4 73 3.4 NE 11 17 6 9 1014.8 1014.7 0.0
26/09:00pm 25.6 27.3 20.2 72 3.5 ENE 11 17 6 9 1014.5 1014.4 0.0
26/08:30pm 25.8 27.1 20.1 71 3.7 ENE 13 20 7 11 1014.3 1014.2 0.0
26/08:00pm 25.9 27.2 20.2 71 3.7 NE 13 17 7 9 1014.3 1014.2 0.0
26/07:30pm 26.3 27.5 20.6 71 3.7 NE 15 20 8 11 1014.1 1014.0 0.0
26/07:00pm 26.3 27.4 21.3 74 3.3 NNE 17 22 9 12 1013.5 1013.4 0.0
26/06:30pm 26.6 27.5 20.9 71 3.8 NNE 17 24 9 13 1013.4 1013.3 0.0
26/06:00pm 27.1 27.2 21.2 70 3.9 NNE 22 28 12 15 1013.0 1012.9 0.0
26/05:30pm 27.6 27.7 21.2 68 4.3 NNE 22 32 12 17 1012.5 1012.4 0.0
26/05:00pm 27.9 27.2 21.0 66 4.6 NNE 26 35 14 19 1012.3 1012.2 0.0
26/04:30pm 28.3 27.8 20.8 63 5.0 NNE 24 32 13 17 1012.1 1012.0 0.0
26/04:00pm 28.9 28.3 20.4 60 5.6 NNE 24 32 13 17 1012.1 1012.0 0.0
26/03:30pm 28.8 28.0 20.0 59 5.8 NNE 24 32 13 17 1012.2 1012.1 0.0
26/03:00pm 29.2 28.4 20.1 58 6.0 NNE 24 35 13 19 1012.1 1012.0 0.0
26/02:30pm 29.6 28.6 20.5 58 6.0 NNE 26 35 14 19 1012.4 1012.3 0.0
26/02:00pm 29.9 29.4 20.7 57 6.1 NNE 24 32 13 17 1012.6 1012.5 0.0

Other Formats:

Comma delimited format used in spreadsheet applications
http://www.bom.gov.au/fwo/IDQ60801/IDQ60801.95369.axf

JavaScript Object Notation format (JSON) in row-major order
http://www.bom.gov.au/fwo/IDQ60801/IDQ60801.95369.json